Time;durP1;ratioP1;P1;durP2;ratioP2;P2;SDS_P1;SDS_P2;PMS_P1;PMS_P2;Temp;Humidity;BMP_temperature;BMP_pressure;BME280_temperature;BME280_humidity;BME280_pressure;Samples;Min_cycle;Max_cycle;Signal;HPM_P1;HPM_P2
2021/12/15 00:00:04;;;;;;;15.13;7.53;;;3.80;99.90;;;;;;5064987;28;20020;-49
2021/12/15 00:02:30;;;;;;;14.00;7.65;;;3.80;99.90;;;;;;5063899;28;20025;-50
2021/12/15 00:04:56;;;;;;;14.35;7.95;;;3.80;99.90;;;;;;5061946;28;20453;-50
2021/12/15 00:07:25;;;;;;;16.35;8.23;;;3.80;99.90;;;;;;5064273;28;20447;-52
2021/12/15 00:09:52;;;;;;;13.68;7.55;;;3.80;99.90;;;;;;5064129;28;20031;-50
2021/12/15 00:12:19;;;;;;;13.27;7.38;;;3.80;99.90;;;;;;5046254;28;20024;-52
2021/12/15 00:14:46;;;;;;;15.45;7.03;;;3.80;99.90;;;;;;5044651;28;20062;-50
2021/12/15 00:17:12;;;;;;;13.82;7.25;;;3.80;99.90;;;;;;5064143;28;20104;-51
2021/12/15 00:19:38;;;;;;;13.30;6.68;;;3.80;99.90;;;;;;5044920;28;20127;-50
2021/12/15 00:22:05;;;;;;;12.45;6.43;;;3.80;99.90;;;;;;5064664;28;20120;-52
2021/12/15 00:24:31;;;;;;;11.45;6.20;;;3.80;99.90;;;;;;5061491;28;20028;-49
2021/12/15 00:26:57;;;;;;;10.50;5.65;;;3.70;99.90;;;;;;5064049;28;20039;-49
2021/12/15 00:29:24;;;;;;;10.85;6.07;;;3.70;99.90;;;;;;5063992;28;20108;-52
2021/12/15 00:31:51;;;;;;;10.88;5.68;;;3.70;99.90;;;;;;5044551;28;20484;-50
2021/12/15 00:34:20;;;;;;;11.45;5.55;;;3.60;99.90;;;;;;5063828;28;20054;-50
2021/12/15 00:36:47;;;;;;;10.40;5.88;;;3.70;99.90;;;;;;5062698;28;20060;-51
2021/12/15 00:39:17;;;;;;;11.43;5.55;;;3.60;99.90;;;;;;5067354;28;20036;-53
2021/12/15 00:41:45;;;;;;;11.05;5.85;;;3.60;99.90;;;;;;5065692;28;20398;-52
2021/12/15 00:44:12;;;;;;;11.15;5.63;;;3.70;99.90;;;;;;5049620;28;20085;-52
2021/12/15 00:46:39;;;;;;;11.82;5.82;;;3.70;99.90;;;;;;5067549;28;20377;-53
2021/12/15 00:49:07;;;;;;;11.85;6.07;;;3.70;99.90;;;;;;5068196;28;20039;-50
2021/12/15 00:51:34;;;;;;;11.60;5.70;;;3.70;99.90;;;;;;5067168;28;20024;-53
2021/12/15 00:54:00;;;;;;;11.40;6.07;;;3.70;99.90;;;;;;5066229;28;20119;-50
2021/12/15 00:56:26;;;;;;;11.27;6.28;;;3.70;99.90;;;;;;5067233;28;20131;-51
2021/12/15 00:58:52;;;;;;;13.82;6.50;;;3.70;99.90;;;;;;5067342;28;20028;-52
2021/12/15 01:01:18;;;;;;;11.45;6.40;;;3.80;99.90;;;;;;5067622;28;20024;-53
2021/12/15 01:03:45;;;;;;;12.68;6.68;;;3.80;99.90;;;;;;5065427;28;20534;-52
2021/12/15 01:06:13;;;;;;;10.52;5.57;;;3.70;99.90;;;;;;5067314;28;20373;-52
2021/12/15 01:08:43;;;;;;;10.50;5.40;;;3.70;99.90;;;;;;5066922;28;20482;-52
2021/12/15 01:22:16;;;;;;;10.23;5.10;;;4.00;99.90;;;;;;5064957;28;20067;-53
2021/12/15 01:24:42;;;;;;;9.52;4.80;;;4.00;99.90;;;;;;5047215;28;20035;-50
2021/12/15 01:27:09;;;;;;;7.65;4.60;;;3.90;99.90;;;;;;5066064;28;20487;-51
2021/12/15 01:29:35;;;;;;;8.63;4.63;;;3.80;99.90;;;;;;5065708;28;20032;-53
2021/12/15 01:32:00;;;;;;;12.32;6.80;;;3.80;99.90;;;;;;5066383;28;20081;-51
2021/12/15 01:34:27;;;;;;;13.18;6.50;;;3.80;99.90;;;;;;5064533;28;20029;-52
2021/12/15 01:36:54;;;;;;;10.38;6.35;;;3.80;99.90;;;;;;5062921;28;20032;-53
2021/12/15 01:39:21;;;;;;;11.93;6.93;;;3.80;99.90;;;;;;5075318;28;20584;-52
2021/12/15 01:41:46;;;;;;;13.45;7.25;;;3.80;99.90;;;;;;5050895;28;20024;-53
2021/12/15 01:46:58;;;;;;;11.45;6.43;;;3.80;99.90;;;;;;5065653;28;20499;-51
2021/12/15 01:49:27;;;;;;;12.27;6.40;;;3.80;99.90;;;;;;5065801;28;20499;-53
2021/12/15 01:51:55;;;;;;;12.20;6.65;;;3.70;99.90;;;;;;5063768;28;20028;-53
2021/12/15 01:54:23;;;;;;;9.43;5.13;;;3.60;99.90;;;;;;5066869;28;20062;-52
2021/12/15 01:56:49;;;;;;;8.13;4.60;;;3.50;99.90;;;;;;5067188;28;20582;-53
2021/12/15 01:59:20;;;;;;;9.75;5.28;;;3.50;99.90;;;;;;5066796;28;20075;-52
2021/12/15 02:01:46;;;;;;;9.65;5.68;;;3.70;99.90;;;;;;5065503;28;20040;-53
2021/12/15 02:04:13;;;;;;;7.43;4.22;;;3.70;99.90;;;;;;5048652;28;20032;-54
2021/12/15 02:06:44;;;;;;;7.88;4.82;;;3.70;99.90;;;;;;5066501;28;20024;-53
2021/12/15 02:09:15;;;;;;;7.35;4.35;;;3.60;99.90;;;;;;5067088;28;20033;-52
2021/12/15 02:11:40;;;;;;;7.82;4.03;;;3.60;99.90;;;;;;5064332;28;20043;-50
2021/12/15 02:14:07;;;;;;;6.47;4.07;;;3.60;99.90;;;;;;5066143;28;20029;-51
2021/12/15 02:16:32;;;;;;;6.95;4.05;;;3.50;99.90;;;;;;5065358;28;20035;-49
2021/12/15 02:18:58;;;;;;;6.15;3.53;;;3.50;99.90;;;;;;5066493;28;20033;-50
2021/12/15 02:21:25;;;;;;;5.72;3.45;;;3.20;99.90;;;;;;5064866;28;20341;-52
2021/12/15 02:23:56;;;;;;;5.80;3.58;;;3.30;99.90;;;;;;5066342;28;20025;-53
2021/12/15 02:26:33;;;;;;;5.70;3.35;;;3.30;99.90;;;;;;5048288;28;20425;-50
2021/12/15 02:29:01;;;;;;;6.07;3.83;;;3.30;99.90;;;;;;5049637;28;20405;-50
2021/12/15 02:39:16;;;;;;;6.53;3.35;;;3.30;99.90;;;;;;5064534;28;20055;-51
2021/12/15 02:41:45;;;;;;;6.40;4.00;;;3.30;99.90;;;;;;5064524;28;20037;-52
2021/12/15 02:44:17;;;;;;;6.75;4.18;;;3.30;99.90;;;;;;5065916;28;20506;-50
2021/12/15 02:46:44;;;;;;;5.63;3.33;;;3.30;99.90;;;;;;5047696;28;20021;-53
2021/12/15 02:49:13;;;;;;;5.82;3.72;;;3.30;99.90;;;;;;5065579;28;20037;-52
2021/12/15 02:51:40;;;;;;;6.95;4.50;;;;;;;;;;5065119;28;20054;-53
2021/12/15 02:54:09;;;;;;;5.60;3.40;;;3.30;99.90;;;;;;5065258;28;20028;-53
2021/12/15 02:56:35;;;;;;;5.53;3.20;;;3.30;99.90;;;;;;5064329;28;20047;-50
2021/12/15 02:59:05;;;;;;;5.10;3.35;;;;;;;;;;5066331;28;20044;-51
2021/12/15 03:01:40;;;;;;;4.97;3.17;;;;;;;;;;5064955;28;20407;-50
2021/12/15 03:04:25;;;;;;;5.68;3.25;;;3.30;99.90;;;;;;5065840;28;20107;-54
2021/12/15 03:07:02;;;;;;;4.97;3.22;;;;;;;;;;5063959;28;20036;-53
2021/12/15 03:17:29;;;;;;;5.35;2.88;;;3.20;99.90;;;;;;5066573;28;20115;-51
2021/12/15 03:19:54;;;;;;;3.83;2.30;;;3.20;99.90;;;;;;5066752;28;20652;-49
2021/12/15 03:22:20;;;;;;;4.15;2.40;;;3.30;99.90;;;;;;5065891;28;20040;-52
2021/12/15 03:24:47;;;;;;;4.30;2.78;;;3.30;99.90;;;;;;5066175;28;20029;-52
2021/12/15 03:27:18;;;;;;;4.15;3.03;;;3.40;99.90;;;;;;5066867;28;20032;-51
2021/12/15 03:37:45;;;;;;;5.80;3.83;;;3.50;99.90;;;;;;5066364;28;20047;-52
2021/12/15 03:40:11;;;;;;;6.07;4.05;;;3.40;99.90;;;;;;5066691;28;20064;-53
2021/12/15 03:42:44;;;;;;;6.60;4.32;;;3.40;99.90;;;;;;5066463;28;20063;-50
2021/12/15 03:45:15;;;;;;;5.82;3.25;;;3.50;99.90;;;;;;5064953;28;20123;-50
2021/12/15 03:47:43;;;;;;;5.10;3.05;;;3.50;99.90;;;;;;5066176;28;20074;-51
2021/12/15 03:50:12;;;;;;;5.35;3.20;;;3.30;99.90;;;;;;5066598;28;20109;-54
2021/12/15 03:52:38;;;;;;;6.13;3.20;;;3.40;99.90;;;;;;5066545;28;20103;-53
2021/12/15 03:55:06;;;;;;;4.68;2.95;;;3.40;99.90;;;;;;5067122;28;20104;-53
2021/12/15 03:57:32;;;;;;;6.07;3.50;;;3.30;99.90;;;;;;5065080;28;20035;-52
2021/12/15 03:59:58;;;;;;;4.95;3.13;;;3.40;99.90;;;;;;5066361;28;20487;-50
2021/12/15 04:02:24;;;;;;;4.00;2.85;;;3.50;99.90;;;;;;5066361;28;20056;-54
2021/12/15 04:04:51;;;;;;;4.68;2.80;;;3.40;99.90;;;;;;5066200;28;20404;-51
2021/12/15 04:07:20;;;;;;;3.50;2.65;;;3.30;99.90;;;;;;5066444;28;20146;-49
2021/12/15 04:09:46;;;;;;;4.43;2.72;;;3.30;99.90;;;;;;5064528;28;20384;-52
2021/12/15 04:12:13;;;;;;;3.92;2.47;;;3.30;99.90;;;;;;5064459;28;20116;-52
2021/12/15 04:14:45;;;;;;;4.10;2.63;;;3.30;99.90;;;;;;5065566;28;20020;-52
2021/12/15 04:17:49;;;;;;;4.68;2.67;;;3.30;99.90;;;;;;5065934;28;20142;-53
2021/12/15 04:20:12;;;;;;;5.97;3.70;;;3.30;99.90;;;;;;5061878;28;20818;-53
2021/12/15 04:22:39;;;;;;;4.63;2.83;;;3.30;99.90;;;;;;5064443;28;20025;-50
2021/12/15 04:25:07;;;;;;;3.58;2.25;;;3.30;99.90;;;;;;5066146;28;20376;-51
2021/12/15 04:27:33;;;;;;;4.40;3.08;;;3.30;99.90;;;;;;5065071;28;20021;-53
2021/12/15 04:30:00;;;;;;;6.35;3.90;;;3.30;99.90;;;;;;5065473;28;20438;-51
2021/12/15 04:32:42;;;;;;;6.75;4.13;;;3.30;99.90;;;;;;5065435;28;20094;-52
2021/12/15 04:35:09;;;;;;;5.95;3.97;;;3.30;99.90;;;;;;5065698;28;20039;-50
2021/12/15 04:37:35;;;;;;;6.15;3.88;;;3.40;99.90;;;;;;5065505;28;20039;-53
2021/12/15 04:40:04;;;;;;;6.22;4.35;;;3.30;99.90;;;;;;5046284;28;20124;-52
2021/12/15 04:42:32;;;;;;;6.07;4.35;;;3.30;99.90;;;;;;5065497;28;20039;-53
2021/12/15 04:44:58;;;;;;;6.38;4.13;;;3.30;99.90;;;;;;5065911;28;20108;-49
2021/12/15 04:47:25;;;;;;;6.15;3.95;;;3.30;99.90;;;;;;5065417;28;20021;-53
2021/12/15 04:49:54;;;;;;;6.53;3.90;;;3.30;99.90;;;;;;5066258;28;20035;-53
2021/12/15 04:52:23;;;;;;;5.43;3.58;;;3.20;99.90;;;;;;5065282;28;20813;-53
2021/12/15 04:54:50;;;;;;;5.50;3.88;;;3.30;99.90;;;;;;5066400;28;20031;-51
2021/12/15 04:57:19;;;;;;;7.57;4.43;;;3.30;99.90;;;;;;5065760;28;20040;-52
2021/12/15 04:59:45;;;;;;;16.00;8.05;;;3.20;99.90;;;;;;5065428;28;20031;-54
2021/12/15 05:02:13;;;;;;;13.32;7.07;;;3.30;99.90;;;;;;5062671;28;20032;-52
2021/12/15 05:04:40;;;;;;;22.77;10.65;;;3.30;99.90;;;;;;5030675;28;20039;-53
2021/12/15 05:07:06;;;;;;;15.57;8.70;;;3.30;99.90;;;;;;5065527;28;20029;-51
2021/12/15 05:09:32;;;;;;;14.25;7.30;;;3.30;99.90;;;;;;5063872;28;20040;-51
2021/12/15 05:11:57;;;;;;;11.02;6.22;;;3.40;99.90;;;;;;5064323;28;20031;-52
2021/12/15 05:14:24;;;;;;;10.35;6.32;;;3.40;99.90;;;;;;5065238;28;20032;-51
2021/12/15 05:16:51;;;;;;;7.65;4.70;;;3.30;99.90;;;;;;5065778;28;20028;-51
2021/12/15 05:19:18;;;;;;;8.80;5.05;;;3.40;99.90;;;;;;5065506;28;20543;-50
2021/12/15 05:21:44;;;;;;;7.93;4.82;;;3.30;99.90;;;;;;5064101;28;20031;-50
2021/12/15 05:24:30;;;;;;;7.80;4.40;;;3.40;99.90;;;;;;5065666;28;20467;-52
2021/12/15 05:27:12;;;;;;;7.47;4.38;;;3.40;99.90;;;;;;5068972;28;20028;-52
2021/12/15 05:29:40;;;;;;;7.05;4.38;;;3.40;99.90;;;;;;5067609;28;20025;-53
2021/12/15 05:32:08;;;;;;;6.05;3.95;;;3.40;99.90;;;;;;5067782;28;20035;-53
2021/12/15 05:34:36;;;;;;;5.50;3.53;;;3.40;99.90;;;;;;5068346;28;20459;-52
2021/12/15 05:37:02;;;;;;;6.10;4.32;;;3.40;99.90;;;;;;5068359;28;20033;-53
2021/12/15 05:39:28;;;;;;;6.38;3.83;;;3.40;99.90;;;;;;5067363;28;20032;-53
2021/12/15 05:41:54;;;;;;;7.53;4.07;;;3.30;99.90;;;;;;5069302;28;20078;-53
2021/12/15 05:44:21;;;;;;;6.43;4.20;;;3.40;99.90;;;;;;5069008;28;20098;-52
2021/12/15 05:46:47;;;;;;;8.50;5.13;;;3.40;99.90;;;;;;5068170;28;20025;-53
2021/12/15 05:49:13;;;;;;;6.80;4.50;;;3.40;99.90;;;;;;5066444;28;20055;-50
2021/12/15 05:51:38;;;;;;;6.32;4.00;;;3.40;99.90;;;;;;5068427;28;20063;-52
2021/12/15 05:54:06;;;;;;;7.25;4.88;;;3.30;99.90;;;;;;5068528;28;20052;-53
2021/12/15 05:56:32;;;;;;;6.97;4.50;;;3.30;99.90;;;;;;5068124;28;20499;-53
2021/12/15 05:58:58;;;;;;;7.90;4.38;;;3.40;99.90;;;;;;5067564;28;20016;-53
2021/12/15 06:01:24;;;;;;;7.88;5.15;;;3.40;99.90;;;;;;5067186;28;20040;-54
2021/12/15 06:03:49;;;;;;;7.80;4.80;;;3.40;99.90;;;;;;5068861;28;20055;-53
2021/12/15 06:06:15;;;;;;;7.90;4.88;;;3.50;99.90;;;;;;5067122;28;20028;-53
2021/12/15 06:08:41;;;;;;;7.95;4.80;;;3.40;99.90;;;;;;5067413;28;20450;-52
2021/12/15 06:11:07;;;;;;;7.13;4.53;;;3.50;99.90;;;;;;5068259;28;20063;-51
2021/12/15 06:13:33;;;;;;;7.10;4.47;;;3.40;99.90;;;;;;5067983;28;20021;-53
2021/12/15 06:16:00;;;;;;;7.75;5.03;;;3.40;99.90;;;;;;5067352;28;20051;-51
2021/12/15 06:18:26;;;;;;;6.55;4.38;;;3.40;99.90;;;;;;5066588;28;20035;-53
2021/12/15 06:20:54;;;;;;;6.85;4.40;;;3.40;99.90;;;;;;5066747;28;20419;-52
2021/12/15 06:23:22;;;;;;;7.88;4.50;;;3.40;99.90;;;;;;5066518;28;20033;-50
2021/12/15 06:25:52;;;;;;;6.53;4.07;;;3.40;99.90;;;;;;5066773;28;20029;-51
2021/12/15 06:28:19;;;;;;;6.63;4.00;;;3.50;99.90;;;;;;5067612;28;20031;-52
2021/12/15 06:30:45;;;;;;;6.63;4.22;;;3.50;99.90;;;;;;5067452;28;20021;-53
2021/12/15 06:33:13;;;;;;;7.82;4.25;;;3.40;99.90;;;;;;5067003;28;20035;-53
2021/12/15 06:35:38;;;;;;;6.68;4.45;;;3.40;99.90;;;;;;5067005;28;20143;-52
2021/12/15 06:38:05;;;;;;;6.82;3.95;;;3.40;99.90;;;;;;5068619;28;20108;-52
2021/12/15 06:40:31;;;;;;;6.25;4.00;;;3.40;99.90;;;;;;5066458;28;20097;-52
2021/12/15 06:42:57;;;;;;;6.13;4.05;;;3.40;99.90;;;;;;5067525;28;20834;-50
2021/12/15 06:45:31;;;;;;;6.70;4.07;;;3.40;99.90;;;;;;5066050;28;20057;-53
2021/12/15 06:58:55;;;;;;;9.80;5.93;;;3.50;99.90;;;;;;5066196;28;20026;-50
2021/12/15 07:01:21;;;;;;;8.10;4.72;;;3.50;99.90;;;;;;5067036;28;20034;-53
2021/12/15 07:03:46;;;;;;;10.75;5.50;;;3.40;99.90;;;;;;5066406;28;20703;-52
2021/12/15 07:06:12;;;;;;;7.80;4.97;;;3.30;99.90;;;;;;5067129;28;20024;-51
2021/12/15 07:08:38;;;;;;;8.43;4.95;;;3.30;99.90;;;;;;5066181;28;20056;-52
2021/12/15 07:11:05;;;;;;;8.25;4.88;;;3.30;99.90;;;;;;5067082;28;20052;-52
2021/12/15 07:13:30;;;;;;;7.28;4.25;;;3.40;99.90;;;;;;5065575;28;20024;-52
2021/12/15 07:16:04;;;;;;;7.88;4.72;;;3.40;99.90;;;;;;5066327;28;20028;-52
2021/12/15 07:18:52;;;;;;;7.38;4.10;;;3.40;99.90;;;;;;5065710;28;20115;-50
2021/12/15 07:21:20;;;;;;;6.35;4.30;;;3.40;99.90;;;;;;5066464;28;20105;-51
2021/12/15 07:23:48;;;;;;;6.65;3.97;;;3.40;99.90;;;;;;5066476;28;20561;-51
2021/12/15 07:26:14;;;;;;;5.57;3.35;;;3.50;99.90;;;;;;5066654;28;20515;-52
2021/12/15 07:28:40;;;;;;;5.72;3.70;;;3.50;99.90;;;;;;5064154;28;20028;-52
2021/12/15 07:31:07;;;;;;;5.65;3.40;;;3.50;99.90;;;;;;5066025;28;20079;-51
2021/12/15 07:33:33;;;;;;;5.80;3.33;;;3.50;99.90;;;;;;5066285;28;20386;-53
2021/12/15 07:36:00;;;;;;;4.65;3.20;;;3.50;99.90;;;;;;5065381;28;20032;-52
2021/12/15 07:38:25;;;;;;;5.60;3.58;;;3.50;99.90;;;;;;5066154;28;20098;-52
2021/12/15 07:40:52;;;;;;;5.20;3.20;;;3.50;99.90;;;;;;5066615;28;20033;-53
2021/12/15 07:43:24;;;;;;;6.32;3.53;;;3.50;99.90;;;;;;5065101;28;20024;-54
2021/12/15 07:45:57;;;;;;;10.15;5.70;;;3.50;99.90;;;;;;5066175;28;20063;-52
2021/12/15 07:48:26;;;;;;;9.30;5.13;;;3.50;99.90;;;;;;5065921;28;20407;-52
2021/12/15 07:50:54;;;;;;;9.30;4.90;;;3.40;99.90;;;;;;5066472;28;20024;-52
2021/12/15 07:53:20;;;;;;;8.05;4.55;;;3.40;99.90;;;;;;5063728;28;20036;-52
2021/12/15 07:55:48;;;;;;;9.20;5.38;;;3.40;99.90;;;;;;5066251;28;20056;-50
2021/12/15 07:58:14;;;;;;;8.25;5.07;;;3.50;99.90;;;;;;5066437;28;20108;-52
2021/12/15 08:00:42;;;;;;;8.68;5.07;;;3.50;99.90;;;;;;5065546;28;20127;-53
2021/12/15 08:03:09;;;;;;;6.15;3.80;;;3.50;99.90;;;;;;5064381;28;20024;-51
2021/12/15 08:05:37;;;;;;;5.55;3.53;;;3.50;99.90;;;;;;5066327;28;20025;-53
2021/12/15 08:08:04;;;;;;;6.13;4.25;;;3.50;99.90;;;;;;5066121;28;20650;-52
2021/12/15 08:10:29;;;;;;;5.75;3.42;;;3.30;99.90;;;;;;5062086;28;20028;-51
2021/12/15 08:12:56;;;;;;;4.85;3.20;;;3.20;99.90;;;;;;5062448;28;20032;-52
2021/12/15 08:15:22;;;;;;;4.47;3.00;;;3.20;99.90;;;;;;5083950;28;20016;-52
2021/12/15 08:17:51;;;;;;;4.65;3.30;;;3.20;99.90;;;;;;5077584;28;20394;-52
2021/12/15 08:20:20;;;;;;;4.57;3.30;;;3.20;99.90;;;;;;5064060;28;20024;-53
2021/12/15 08:22:47;;;;;;;5.70;3.72;;;3.30;99.90;;;;;;5063188;28;20450;-52
2021/12/15 08:25:14;;;;;;;5.45;3.80;;;3.30;99.90;;;;;;5063300;28;20017;-52
2021/12/15 08:27:42;;;;;;;7.50;4.47;;;3.30;99.90;;;;;;5080546;28;20427;-52
2021/12/15 08:30:20;;;;;;;15.98;7.90;;;3.20;99.90;;;;;;5081720;28;20020;-51
2021/12/15 08:32:52;;;;;;;15.27;7.47;;;3.20;99.90;;;;;;5062525;28;20035;-53
2021/12/15 08:35:23;;;;;;;14.32;7.05;;;3.30;99.90;;;;;;5078193;28;20111;-51
2021/12/15 08:37:49;;;;;;;12.02;6.05;;;3.30;99.90;;;;;;5075512;28;20050;-53
2021/12/15 08:40:19;;;;;;;10.13;5.80;;;3.40;99.90;;;;;;5057813;28;20048;-49
2021/12/15 08:42:45;;;;;;;9.57;5.50;;;3.40;99.90;;;;;;5062326;28;20024;-51
2021/12/15 08:45:12;;;;;;;9.80;5.40;;;3.40;99.90;;;;;;5063566;28;20494;-52
2021/12/15 08:47:37;;;;;;;8.73;5.25;;;3.30;99.90;;;;;;5064062;28;20028;-53
2021/12/15 08:50:07;;;;;;;7.13;4.75;;;3.30;99.90;;;;;;5065878;28;20100;-51
2021/12/15 08:52:33;;;;;;;7.00;4.72;;;3.40;99.90;;;;;;5068232;28;20036;-51
2021/12/15 08:55:00;;;;;;;7.20;4.25;;;3.20;99.90;;;;;;5063584;28;20029;-53
2021/12/15 08:57:26;;;;;;;7.80;4.65;;;3.20;99.90;;;;;;5070674;28;20037;-52
2021/12/15 08:59:51;;;;;;;6.63;4.20;;;3.30;99.90;;;;;;5067495;28;20028;-49
2021/12/15 09:02:18;;;;;;;8.23;5.18;;;3.20;99.90;;;;;;5067495;28;20472;-53
2021/12/15 09:04:43;;;;;;;8.60;5.50;;;3.30;99.90;;;;;;5066803;28;20711;-53
2021/12/15 09:07:09;;;;;;;9.80;5.78;;;3.20;99.90;;;;;;5069318;28;20269;-53
2021/12/15 09:09:35;;;;;;;9.57;6.00;;;3.20;99.90;;;;;;5066936;28;20085;-53
2021/12/15 09:12:03;;;;;;;7.70;5.20;;;3.30;99.90;;;;;;5069343;28;20035;-51
2021/12/15 09:14:29;;;;;;;9.57;5.43;;;3.20;99.90;;;;;;5067261;28;20025;-53
2021/12/15 09:16:57;;;;;;;8.70;5.45;;;3.20;99.90;;;;;;5068126;28;20078;-53
2021/12/15 09:19:25;;;;;;;9.07;5.25;;;3.30;99.90;;;;;;5056959;28;20060;-52
2021/12/15 09:21:52;;;;;;;8.90;5.28;;;3.30;99.90;;;;;;5067245;28;20387;-51
2021/12/15 09:24:20;;;;;;;9.43;5.18;;;3.30;99.90;;;;;;5067819;28;20043;-52
2021/12/15 09:26:46;;;;;;;8.93;5.43;;;3.20;99.90;;;;;;5068804;28;20056;-52
2021/12/15 09:29:12;;;;;;;8.70;5.32;;;3.10;99.90;;;;;;5066182;28;20112;-54
2021/12/15 09:31:39;;;;;;;7.65;4.97;;;3.10;99.90;;;;;;5064906;28;20486;-53
2021/12/15 09:34:06;;;;;;;9.98;6.05;;;3.20;99.90;;;;;;5064769;28;20051;-53
2021/12/15 09:36:33;;;;;;;7.78;4.97;;;3.20;99.90;;;;;;5066080;28;20554;-54
2021/12/15 09:39:07;;;;;;;6.93;4.38;;;3.30;99.90;;;;;;5082663;28;20028;-53
2021/12/15 09:41:33;;;;;;;7.20;4.32;;;3.30;99.90;;;;;;5054369;28;20123;-52
2021/12/15 09:44:05;;;;;;;7.80;4.32;;;3.20;99.90;;;;;;5067123;28;20039;-49
2021/12/15 09:46:42;;;;;;;6.68;4.28;;;3.30;99.90;;;;;;5064786;28;20438;-52
2021/12/15 09:57:48;;;;;;;11.07;4.60;;;3.10;99.90;;;;;;5065281;28;20121;-53
2021/12/15 10:03:05;;;;;;;6.75;4.28;;;3.20;99.90;;;;;;5066244;28;20070;-53
2021/12/15 10:19:38;;;;;;;8.45;5.15;;;3.20;99.90;;;;;;5067165;28;20074;-55
2021/12/15 10:22:08;;;;;;;7.20;4.53;;;3.30;99.90;;;;;;5066836;28;20047;-53
2021/12/15 10:24:45;;;;;;;7.57;4.82;;;3.30;99.90;;;;;;5064332;28;20074;-51
2021/12/15 10:27:18;;;;;;;7.97;5.38;;;3.20;99.90;;;;;;5068833;28;20111;-52
2021/12/15 10:29:57;;;;;;;7.60;5.00;;;3.40;99.90;;;;;;5061288;28;20115;-53
2021/12/15 10:32:29;;;;;;;6.57;4.63;;;3.20;99.90;;;;;;5066802;28;20133;-51
2021/12/15 10:35:06;;;;;;;4.70;3.42;;;3.30;99.90;;;;;;5069544;28;20017;-53
2021/12/15 10:37:31;;;;;;;5.72;3.75;;;3.40;99.90;;;;;;5065357;28;20028;-50
2021/12/15 10:40:18;;;;;;;6.22;3.70;;;3.40;99.90;;;;;;5065552;28;20044;-53
2021/12/15 10:42:45;;;;;;;4.88;3.70;;;3.40;99.90;;;;;;5067778;28;20078;-50
2021/12/15 10:45:13;;;;;;;5.90;3.58;;;3.40;99.90;;;;;;5087222;28;20028;-49
2021/12/15 10:47:42;;;;;;;5.03;3.15;;;3.40;99.90;;;;;;5073358;28;20029;-50
2021/12/15 10:50:12;;;;;;;5.15;3.60;;;;;;;;;;5066025;28;20009;-51
2021/12/15 10:52:48;;;;;;;3.95;2.60;;;;;;;;;;5063968;28;20042;-53
2021/12/15 10:55:14;;;;;;;5.25;3.47;;;3.20;99.90;;;;;;5065347;28;20038;-53
2021/12/15 10:57:44;;;;;;;6.50;3.58;;;3.20;99.90;;;;;;5065376;28;20037;-53
2021/12/15 11:00:13;;;;;;;5.80;3.55;;;3.30;99.90;;;;;;5064738;28;20423;-52
2021/12/15 11:02:40;;;;;;;4.85;3.00;;;3.20;99.90;;;;;;5066206;28;20125;-53
2021/12/15 11:05:11;;;;;;;4.53;2.83;;;3.30;99.90;;;;;;5066038;28;20029;-53
2021/12/15 11:07:39;;;;;;;4.35;2.92;;;3.40;99.90;;;;;;5065024;28;20068;-53
2021/12/15 11:10:12;;;;;;;4.38;3.22;;;3.50;99.90;;;;;;5066630;28;20021;-53
2021/12/15 11:12:50;;;;;;;3.97;2.75;;;3.50;99.90;;;;;;5066660;28;20029;-53
2021/12/15 11:15:31;;;;;;;4.50;2.78;;;3.50;99.90;;;;;;5057214;28;20028;-53
2021/12/15 11:18:15;;;;;;;4.45;2.92;;;3.50;99.90;;;;;;5067181;28;20082;-53
2021/12/15 11:20:59;;;;;;;5.07;3.20;;;3.50;99.90;;;;;;5054135;28;20028;-52
2021/12/15 11:23:27;;;;;;;4.13;2.53;;;3.40;99.90;;;;;;5066827;28;20047;-52
2021/12/15 11:26:04;;;;;;;4.78;3.03;;;3.50;99.90;;;;;;5068380;28;20036;-51
2021/12/15 11:28:34;;;;;;;5.80;3.28;;;3.40;99.90;;;;;;5066408;28;20064;-53
2021/12/15 11:31:16;;;;;;;4.45;2.88;;;3.50;99.90;;;;;;5065778;28;20033;-53
2021/12/15 11:33:45;;;;;;;4.75;2.97;;;3.50;99.90;;;;;;5065143;28;20039;-53
2021/12/15 11:36:22;;;;;;;5.20;3.50;;;3.60;99.90;;;;;;5065919;28;20462;-51
2021/12/15 11:39:28;;;;;;;4.25;2.78;;;3.70;99.90;;;;;;5065593;28;20052;-51
2021/12/15 11:41:54;;;;;;;10.55;3.67;;;3.70;99.90;;;;;;4963819;28;20062;-52
2021/12/15 11:44:23;;;;;;;9.30;3.40;;;3.50;99.90;;;;;;4964759;28;20871;-53
2021/12/15 11:46:58;;;;;;;6.20;3.25;;;3.50;99.90;;;;;;5014590;28;20513;-53
2021/12/15 11:49:34;;;;;;;5.82;3.63;;;3.60;99.90;;;;;;5060902;28;20118;-54
2021/12/15 11:52:02;;;;;;;5.00;3.20;;;3.60;99.90;;;;;;5066874;28;20492;-52
2021/12/15 11:54:32;;;;;;;4.40;2.83;;;3.70;99.90;;;;;;5066019;28;20024;-53
2021/12/15 11:57:14;;;;;;;4.72;2.90;;;3.70;99.90;;;;;;5066812;28;20067;-49
2021/12/15 11:59:44;;;;;;;4.60;2.75;;;3.70;99.90;;;;;;5065496;28;20079;-52
2021/12/15 12:02:22;;;;;;;3.60;2.42;;;3.80;99.90;;;;;;5066413;28;20074;-53
2021/12/15 12:04:52;;;;;;;4.07;2.60;;;3.80;99.90;;;;;;5066127;28;20036;-52
2021/12/15 12:07:26;;;;;;;4.55;3.15;;;3.90;99.90;;;;;;5065654;28;20031;-53
2021/12/15 12:10:00;;;;;;;5.72;3.53;;;3.60;99.90;;;;;;5065936;28;20024;-53
2021/12/15 12:12:33;;;;;;;5.35;3.13;;;3.40;99.90;;;;;;5074317;28;20017;-50
2021/12/15 12:14:59;;;;;;;3.97;2.95;;;3.60;99.90;;;;;;5064396;28;20463;-52
2021/12/15 12:17:33;;;;;;;5.25;3.33;;;3.60;99.90;;;;;;5066057;28;20392;-52
2021/12/15 12:20:16;;;;;;;5.18;3.40;;;3.70;99.90;;;;;;5066169;28;20070;-50
2021/12/15 12:22:45;;;;;;;4.93;3.38;;;3.70;99.90;;;;;;5066569;28;20488;-49
2021/12/15 12:25:14;;;;;;;5.18;3.42;;;3.70;99.90;;;;;;5063246;28;20021;-50
2021/12/15 12:27:41;;;;;;;5.40;3.58;;;3.70;99.90;;;;;;5066376;28;20032;-50
2021/12/15 12:30:24;;;;;;;6.18;4.00;;;3.70;99.90;;;;;;5065854;28;20029;-53
2021/12/15 12:32:51;;;;;;;4.65;3.38;;;3.70;99.90;;;;;;5066768;28;20543;-53
2021/12/15 12:35:22;;;;;;;5.57;3.55;;;3.70;99.90;;;;;;5068943;28;20029;-51
2021/12/15 12:37:53;;;;;;;6.07;3.90;;;3.80;99.90;;;;;;5070400;28;20028;-52
2021/12/15 12:40:35;;;;;;;6.45;4.05;;;3.80;99.90;;;;;;5068078;28;20055;-53
2021/12/15 12:43:20;;;;;;;6.28;3.50;;;3.80;99.90;;;;;;5064302;28;20033;-50
2021/12/15 12:45:55;;;;;;;5.50;3.15;;;3.70;99.90;;;;;;5050941;28;20028;-51
2021/12/15 12:48:36;;;;;;;4.85;3.17;;;3.70;99.90;;;;;;5070622;28;20032;-55
2021/12/15 12:59:48;;;;;;;7.80;4.85;;;3.80;99.90;;;;;;5068956;28;20036;-52
2021/12/15 13:02:43;;;;;;;10.68;5.18;;;3.80;99.90;;;;;;5066240;28;20017;-53
2021/12/15 13:05:45;;;;;;;8.10;5.05;;;3.70;99.90;;;;;;5062582;28;20025;-52
2021/12/15 13:08:11;;;;;;;7.07;4.47;;;3.80;99.90;;;;;;5068450;28;20039;-51
2021/12/15 13:10:54;;;;;;;7.60;4.55;;;3.70;99.90;;;;;;5067242;28;20029;-51
2021/12/15 13:13:23;;;;;;;7.55;4.38;;;3.70;99.90;;;;;;5073004;28;20040;-52
2021/12/15 13:16:09;;;;;;;8.07;4.95;;;3.70;99.90;;;;;;5081318;28;20035;-49
2021/12/15 13:19:04;;;;;;;9.95;5.45;;;3.70;99.90;;;;;;5083219;28;20349;-52
2021/12/15 13:21:53;;;;;;;10.18;5.40;;;3.70;99.90;;;;;;5085137;28;20554;-52
2021/12/15 13:30:42;;;;;;;9.57;4.90;;;3.80;99.90;;;;;;5074491;28;20040;-50
2021/12/15 13:33:14;;;;;;;7.53;4.25;;;3.80;99.90;;;;;;5067832;28;20427;-52
2021/12/15 13:35:43;;;;;;;6.95;4.25;;;3.80;99.90;;;;;;5067053;28;20347;-51
2021/12/15 13:38:10;;;;;;;16.15;8.80;;;3.70;99.90;;;;;;5049517;28;20029;-52
2021/12/15 13:40:53;;;;;;;35.97;17.80;;;3.60;99.90;;;;;;5066673;28;20458;-51
2021/12/15 13:43:38;;;;;;;29.88;14.35;;;3.70;99.90;;;;;;5066974;28;20495;-51
2021/12/15 13:46:06;;;;;;;27.27;13.90;;;3.60;99.90;;;;;;5066647;28;20024;-52
2021/12/15 13:49:00;;;;;;;20.63;10.80;;;3.50;99.90;;;;;;5066941;28;20029;-52
2021/12/15 13:51:51;;;;;;;19.15;9.23;;;3.60;99.90;;;;;;5066110;28;20035;-54
2021/12/15 13:54:37;;;;;;;13.80;8.00;;;3.60;99.90;;;;;;5067319;28;20404;-52
2021/12/15 13:57:12;;;;;;;14.43;7.03;;;3.70;99.90;;;;;;5046842;28;20056;-52
2021/12/15 13:59:52;;;;;;;13.18;7.00;;;3.60;99.90;;;;;;5066442;28;20458;-51
2021/12/15 14:02:21;;;;;;;9.57;5.45;;;3.60;99.90;;;;;;5064682;28;20551;-51
2021/12/15 14:04:51;;;;;;;9.40;5.78;;;3.60;99.90;;;;;;5067727;28;20039;-53
2021/12/15 14:07:39;;;;;;;7.28;4.55;;;3.50;99.90;;;;;;5049921;28;20407;-53
2021/12/15 14:10:13;;;;;;;7.45;4.25;;;3.50;99.90;;;;;;5067229;28;20024;-53
2021/12/15 14:12:45;;;;;;;7.53;4.28;;;3.50;99.90;;;;;;5062842;28;20122;-51
2021/12/15 14:15:38;;;;;;;6.65;4.03;;;3.50;99.90;;;;;;5064490;28;20039;-53
2021/12/15 14:18:07;;;;;;;5.18;3.72;;;3.50;99.90;;;;;;5065147;28;20149;-52
2021/12/15 14:20:36;;;;;;;6.43;3.75;;;3.50;99.90;;;;;;5065773;28;20136;-50
2021/12/15 14:23:06;;;;;;;5.45;3.35;;;3.50;99.90;;;;;;5067036;28;20051;-53
2021/12/15 14:25:35;;;;;;;5.38;3.25;;;3.50;99.90;;;;;;5070342;28;20029;-53
2021/12/15 14:28:17;;;;;;;3.83;2.70;;;3.50;99.90;;;;;;5068423;28;20526;-53
2021/12/15 14:30:51;;;;;;;7.63;4.00;;;3.50;99.90;;;;;;5074095;28;20080;-52
2021/12/15 14:33:20;;;;;;;5.22;3.40;;;3.50;99.90;;;;;;5081039;28;20028;-51
2021/12/15 14:35:47;;;;;;;5.70;3.28;;;3.60;99.90;;;;;;5067040;28;20043;-51
2021/12/15 14:38:13;;;;;;;4.50;2.97;;;3.50;99.90;;;;;;5076417;28;20028;-52